Main page
METAR-TAF:

METAR-TAF

Airports :

Woodvale, England

RAF Woodvale

latitude: 53-34-54N, longitude: 003-03-20W, elevation: 11 m

Current weather observation

The report was made 11 hours and 5 minutes ago, at 07:50 UTC
Wind 7 kt from the Northeast
Temperature 7°C
Humidity 53%
Pressure 1027 hPa
Visibility 10 km or more
no clouds below 1500 m and no cumulonimbus

METAR: EGOW 260750Z 05007KT CAVOK 07/M02 Q1027 BLU

Time: 19:55 (18:55 UTC)

Forecast

The report was made 11 hours and 38 minutes ago, at 07:17 UTC
Forecast valid from 26 at 09 UTC to 26 at 18 UTC
Wind 5 kt from the East/Northeast
Visibility 10 km or more
no clouds below 1500 m and no cumulonimbus

TAF: EGOW 260717Z 2609/2618 07005KT CAVOK

Weather observations and forecasts of more than 4000 airports (METAR and TAF reports).

The available stations are represented by yellow and red dots on the map.

Hover mouse over dot to see the name of the station.

Then click to see weather observations and forecasts.

To change the map : click on the green buttons with a black cross to zoom in, on the green button with a dash to zoom out, or on the green arrows for adjacent maps.


METAR-TAF: